Metar Report
Metar
METAR KN23 232256Z AUTO 00000KT 10SM SCT042 SCT055 BKN070 04/01 A2960 A02 38
METAR KN23 232156Z AUTO 25007G20KT 200V270 10SM SCT041 SCT048 07/02 A2957 A02 37
METAR KN23 232056Z AUTO 23004KT 10SM SCT070 SCT100 BKN120 07/07 A2953 A02 36
METAR KN23 231956Z AUTO 00000KT M1/4SM OVC001 05/05 A2951 A02 35
METAR KN23 231856Z AUTO 00000KT 1 1/2SM BKN014 OVC036 06/06 A2952 A02 34
METAR KN23 231756Z AUTO 00000KT 1/4SM OVC001 05/05 A2954 A02 P0001 33
METAR KN23 231656Z AUTO 00000KT M1/4SM OVC001 05/05 A2956 A02 32
METAR KN23 231556Z AUTO 01004KT 1/2SM BKN033 OVC048 04/04 A2961 A02 P0011 31
METAR KN23 231456Z AUTO 00000KT 1 1/4SM SCT011 BKN030 OVC039 04/04 A2965 A02 P0032 30
METAR KN23 231356Z AUTO 27005KT 1 1/4SM BKN013 OVC019 05/05 A2967 A02 P0012 29
METAR KN23 231256Z AUTO 00000KT 10SM SCT017 BKN065 OVC110 07/07 A2964 A02 P0003 28
METAR KN23 231156Z AUTO 00000KT 5SM SCT015 BKN034 OVC065 05/05 A2966 A02 P0007 27
METAR KN23 231056Z AUTO 35005KT 10SM BKN015 BKN021 OVC047 05/03 A2970 A02 26
METAR KN23 230956Z AUTO 18004KT 10SM SCT015 BKN038 OVC085 04/04 A2971 A02 25
METAR KN23 230856Z AUTO 20004KT 10SM SCT017 SCT050 OVC090 04/03 A2978 A02 24
METAR KN23 230756Z AUTO 15004KT 10SM SCT033 SCT070 BKN100 04/03 A2982 A02 23
METAR KN23 230656Z AUTO 26003KT 10SM SCT120 05/03 A2984 A02 22
METAR KN23 230556Z AUTO 17004KT 7SM SCT014 04/03 A2985 A02 21
METAR KN23 230456Z AUTO 19003KT 7SM SCT014 04/03 A2990 A02 20
METAR KN23 230356Z AUTO 20004KT 7SM SCT016 04/03 A2994 A02 19
METAR KN23 230256Z AUTO 15003KT 7SM SCT014 05/03 A2994 A02 18
METAR KN23 230156Z AUTO 00000KT 7SM SCT110 05/03 A2997 A02 17
METAR KN23 230056Z AUTO 17009G17KT 7SM SCT090 OVC120 06/04 A2998 A02 16
METAR KN23 222356Z AUTO 16007G16KT 120V190 7SM SCT085 OVC120 06/05 A2999 A02 15
METAR KN23 222256Z AUTO 19007KT 160V220 10SM SCT080 OVC095 05/04 A3001 A02 14
METAR KN23 222156Z AUTO 00000KT 10SM BKN012 BKN022 OVC030 05/05 A3003 A02 13
METAR KN23 222056Z AUTO 20006KT 10SM BKN033 OVC060 06/06 A3002 A02 P0001 12
METAR KN23 221956Z AUTO 00000KT 3/4SM OVC012 03/03 A3002 A02 P0001 11
METAR KN23 221856Z AUTO 00000KT 3SM BKN010 OVC024 04/04 A3003 A02 10
METAR KN23 221756Z AUTO 00000KT 2SM OVC010 03/03 A3006 A02 9
METAR KN23 221656Z AUTO 00000KT 2 1/2SM BKN010 OVC038 03/03 A3010 A02 8
METAR KN23 221556Z AUTO 00000KT 1 1/2SM SCT002 OVC008 02/02 A3013 A02 7
METAR KN23 221456Z AUTO 00000KT 1 1/2SM OVC002 02/02 A3014 A02 6
METAR KN23 221356Z AUTO 00000KT 1 1/4SM OVC002 02/02 A3014 A02 5
METAR KN23 221256Z AUTO 00000KT 1/2SM OVC006 00/00 A3013 A02 4
METAR KN23 221156Z AUTO 00000KT 1 1/2SM OVC003 00/00 A3013 A02 3
METAR KN23 221056Z AUTO 00000KT 1/2SM OVC003 00/00 A3008 A02 2
METAR KN23 220956Z AUTO 00000KT 3/4SM OVC003 00/00 A3009 A02 P0001 1
METAR KN23 220856Z AUTO 00000KT 3/4SM OVC001 00/00 A3008 A02 0
METAR KN23 220756Z AUTO 00000KT 3/4SM OVC003 00/00 A3010 A02 P0001 69
METAR KN23 220656Z AUTO 00000KT 1/2SM BKN003 OVC010 00/00 A3010 A02 68
METAR KN23 220556Z AUTO 00000KT 1/2SM OVC006 00/00 A3008 A02 P0001 67
METAR KN23 220456Z AUTO 00000KT 1SM OVC010 00/00 A3011 A02 66
METAR KN23 220356Z AUTO 00000KT 1 1/4SM OVC010 00/00 A3010 A02 65
METAR KN23 220256Z AUTO 00000KT 2SM SCT009 OVC014 00/00 A3012 A02 64
METAR KN23 220156Z AUTO 00000KT 3SM OVC014 00/00 A3012 A02 63
METAR KN23 220056Z AUTO 00000KT 7SM OVC016 02/00 A3013 A02 62
METAR KN23 212356Z AUTO 00000KT 10SM SCT024 OVC040 02/M01 A3013 A02 61
METAR KN23 212256Z AUTO 00000KT 10SM OVC024 02/M01 A3012 A02 60
METAR KN23 212156Z AUTO 00000KT 10SM BKN024 BKN033 OVC050 03/M01 A3011 A02 59
METAR KN23 212056Z AUTO 00000KT 10SM OVC024 03/M02 A3010 A02 58
METAR KN23 211956Z AUTO 00000KT 10SM OVC026 04/M02 A3010 A02 57
METAR KN23 211856Z AUTO 28006KT 10SM SCT022 04/M02 A3012 A02 56
METAR KN23 211756Z AUTO 00000KT 10SM OVC022 02/M02 A3013 A02 55
METAR KN23 211656Z AUTO 00000KT 10SM OVC022 00/00 A3015 A02 54
METAR KN23 211556Z AUTO 00000KT 7SM OVC024 M03/M03 A3017 A02 53
METAR KN23 211456Z AUTO 00000KT 7SM OVC026 M04/M04 A3017 A02 52
METAR KN23 211356Z AUTO 00000KT 5SM BR OVC024 M04/M04 A3015 A02 51
METAR KN23 211256Z AUTO 00000KT 4SM BR OVC024 M06/M06 A3014 A02 50
METAR KN23 211156Z AUTO 00000KT 5SM BR OVC024 M07/M07 A3014 A02 49
METAR KN23 211056Z AUTO 00000KT 1/2SM FZFG OVC002 M07/M07 A3012 A02 48
METAR KN23 210956Z AUTO 00000KT 7SM OVC002 M08/M08 A3010 A02 47
METAR KN23 210856Z AUTO 00000KT 7SM BKN002 M07/M07 A3009 A02 46
METAR KN23 210756Z AUTO 00000KT 5SM BR CLR M07/M07 A3008 A02 45
METAR KN23 210656Z AUTO 00000KT 5SM BR CLR M07/M07 A3006 A02 44
METAR KN23 210556Z AUTO 00000KT 4SM BR CLR M06/M06 A3005 A02 43
METAR KN23 210456Z AUTO 25003KT 5SM BR CLR M06/M06 A3003 A02 42
METAR KN23 210356Z AUTO 00000KT 5SM BR CLR M04/M04 A3003 A02 41
METAR KN23 210256Z AUTO 00000KT 7SM CLR M03/M03 A3001 A02 40
METAR KN23 210156Z AUTO 00000KT 10SM CLR M03/M03 A3000 A02 39